createdAt,value
2022-09-01T00:33:45.139Z,15.00
2022-09-01T00:36:12.017Z,14.60
2022-09-01T00:38:39.103Z,14.60
2022-09-01T00:41:07.878Z,14.50
2022-09-01T00:43:42.015Z,14.40
2022-09-01T00:46:12.973Z,14.30
2022-09-01T00:48:40.130Z,14.30
2022-09-01T00:51:10.890Z,14.20
2022-09-01T00:53:43.879Z,14.30
2022-09-01T00:56:10.683Z,14.30
2022-09-01T00:58:38.616Z,14.30
2022-09-01T01:01:12.561Z,14.30
2022-09-01T01:03:42.690Z,14.30
2022-09-01T01:06:09.683Z,14.40
2022-09-01T01:08:44.468Z,14.40
2022-09-01T01:11:17.990Z,14.40
2022-09-01T01:13:59.796Z,14.30
2022-09-01T01:16:28.676Z,14.20
2022-09-01T01:18:55.918Z,14.10
2022-09-01T01:21:45.942Z,14.00
2022-09-01T01:24:27.480Z,14.00
2022-09-01T01:26:59.686Z,13.90
2022-09-01T01:29:36.102Z,13.90
2022-09-01T01:32:05.510Z,13.90
2022-09-01T01:34:33.096Z,13.80
2022-09-01T01:37:01.720Z,13.80
2022-09-01T01:39:28.717Z,13.70
2022-09-01T01:41:57.924Z,13.70
2022-09-01T01:44:28.287Z,13.70
2022-09-01T01:46:57.297Z,13.70
2022-09-01T01:49:29.138Z,13.70
2022-09-01T01:52:08.311Z,13.70
2022-09-01T01:54:35.180Z,13.60
2022-09-01T01:57:04.491Z,13.50
2022-09-01T01:59:33.793Z,13.40
2022-09-01T02:04:36.630Z,13.30
2022-09-01T02:07:03.393Z,13.20
2022-09-01T02:09:30.139Z,13.20
2022-09-01T02:12:00.755Z,13.20
2022-09-01T02:14:27.551Z,13.10
2022-09-01T02:16:55.947Z,13.10
2022-09-01T02:19:23.018Z,13.10
2022-09-01T02:21:54.288Z,13.10
2022-09-01T02:24:21.715Z,13.10
2022-09-01T02:26:51.618Z,13.00
2022-09-01T02:29:22.001Z,13.00
2022-09-01T02:31:52.017Z,13.00
2022-09-01T02:34:20.556Z,13.10
2022-09-01T02:36:51.922Z,13.10
2022-09-01T02:39:23.182Z,13.10
2022-09-01T02:41:50.998Z,13.10
2022-09-01T02:44:18.944Z,13.20
2022-09-01T02:46:50.906Z,13.20
2022-09-01T02:49:25.813Z,13.30
2022-09-01T02:51:57.905Z,13.20
2022-09-01T02:54:25.685Z,13.30
2022-09-01T02:56:54.735Z,13.20
2022-09-01T02:59:24.244Z,13.20
2022-09-01T03:01:54.065Z,13.10
2022-09-01T03:04:22.446Z,13.10
2022-09-01T03:06:50.855Z,13.10
2022-09-01T03:09:18.558Z,13.10
2022-09-01T03:11:50.560Z,13.10
2022-09-01T03:14:17.922Z,13.10
2022-09-01T03:16:45.296Z,13.10
2022-09-01T03:19:12.992Z,13.20
2022-09-01T03:21:42.573Z,13.10
2022-09-01T03:24:15.263Z,13.10
2022-09-01T03:26:50.735Z,13.10
2022-09-01T03:29:18.622Z,13.00
2022-09-01T03:31:45.780Z,12.90
2022-09-01T03:34:13.015Z,12.90
2022-09-01T03:36:39.960Z,12.90
2022-09-01T03:39:14.565Z,12.90
2022-09-01T03:41:43.820Z,12.80
2022-09-01T03:44:13.780Z,12.80
2022-09-01T03:46:41.282Z,12.80
2022-09-01T03:49:12.999Z,12.80
2022-09-01T03:51:40.464Z,12.70
2022-09-01T03:54:07.408Z,12.70
2022-09-01T03:56:34.196Z,12.60
2022-09-01T03:59:00.909Z,12.50
2022-09-01T04:01:32.720Z,12.50
2022-09-01T04:04:03.054Z,12.50
2022-09-01T04:06:30.908Z,12.50
2022-09-01T04:09:02.447Z,12.50
2022-09-01T04:11:31.891Z,12.50
2022-09-01T04:14:07.224Z,12.50
2022-09-01T04:16:53.691Z,12.50
2022-09-01T04:19:27.072Z,12.50
2022-09-01T04:21:56.379Z,12.60
2022-09-01T04:24:28.267Z,12.60
2022-09-01T04:26:58.695Z,12.70
2022-09-01T04:29:29.709Z,12.70
2022-09-01T04:32:07.758Z,12.80
2022-09-01T04:34:41.620Z,12.90
2022-09-01T04:37:19.198Z,13.10
2022-09-01T04:39:57.275Z,13.30
2022-09-01T04:42:28.901Z,13.40
2022-09-01T04:45:01.998Z,13.50
2022-09-01T04:47:41.861Z,13.60
2022-09-01T04:50:14.912Z,13.70
2022-09-01T04:52:44.689Z,13.70
2022-09-01T04:55:18.768Z,13.80
2022-09-01T04:57:47.397Z,13.80
2022-09-01T05:00:22.662Z,13.90
2022-09-01T05:03:04.292Z,13.90
2022-09-01T05:05:45.127Z,13.90
2022-09-01T05:08:23.130Z,14.00
2022-09-01T05:10:55.467Z,14.00
2022-09-01T05:13:23.541Z,14.10
2022-09-01T05:16:04.386Z,14.10
2022-09-01T05:18:31.428Z,14.20
2022-09-01T05:20:58.241Z,14.30
2022-09-01T05:23:26.607Z,14.40
2022-09-01T05:25:54.899Z,14.50
2022-09-01T05:28:25.240Z,14.60
2022-09-01T05:30:54.220Z,14.70
2022-09-01T05:33:24.543Z,14.70
2022-09-01T05:36:01.237Z,14.70
2022-09-01T05:38:33.072Z,14.80
2022-09-01T05:41:08.544Z,14.90
2022-09-01T05:43:37.988Z,15.00
2022-09-01T05:46:08.580Z,15.10
2022-09-01T05:48:42.124Z,15.20
2022-09-01T05:51:27.530Z,15.30
2022-09-01T05:53:59.185Z,15.40
2022-09-01T05:56:32.609Z,15.40
2022-09-01T06:01:50.527Z,15.50
2022-09-01T06:04:17.720Z,15.70
2022-09-01T06:07:06.179Z,15.80
2022-09-01T06:09:38.594Z,15.90
2022-09-01T06:12:17.152Z,16.10
2022-09-01T06:14:45.206Z,16.20
2022-09-01T06:17:15.694Z,16.20
2022-09-01T06:19:43.003Z,16.40
2022-09-01T06:22:10.597Z,16.50
2022-09-01T06:24:39.801Z,16.70
2022-09-01T06:27:12.421Z,16.70
2022-09-01T06:29:42.464Z,16.70
2022-09-01T06:32:12.695Z,16.80
2022-09-01T06:34:42.535Z,16.80
2022-09-01T06:37:09.983Z,17.00
2022-09-01T06:39:36.942Z,17.10
2022-09-01T06:42:06.726Z,17.20
2022-09-01T06:44:33.836Z,17.30
2022-09-01T06:47:01.274Z,17.20
2022-09-01T06:49:34.653Z,17.40
2022-09-01T06:52:05.671Z,17.50
2022-09-01T06:54:34.987Z,17.70
2022-09-01T06:59:53.819Z,18.10
2022-09-01T07:02:24.493Z,18.30
2022-09-01T07:04:53.772Z,18.70
2022-09-01T07:10:22.791Z,19.90
2022-09-01T07:13:07.590Z,20.20
2022-09-01T07:18:27.573Z,20.10
2022-09-01T07:21:39.507Z,20.10
2022-09-01T07:24:06.047Z,20.30
2022-09-01T09:29:10.921Z,22.60
2022-09-01T09:31:49.980Z,24.90
2022-09-01T09:37:22.118Z,25.60
2022-09-01T09:40:04.779Z,27.20
2022-09-01T09:42:36.408Z,26.40
2022-09-01T09:45:04.305Z,26.30
2022-09-01T09:47:44.858Z,26.60
2022-09-01T09:50:20.192Z,26.00
2022-09-01T09:52:48.629Z,26.70
2022-09-01T09:55:28.546Z,27.10
2022-09-01T09:58:01.187Z,27.30
2022-09-01T10:00:32.278Z,26.20
2022-09-01T10:03:08.674Z,26.00
2022-09-01T10:05:53.793Z,26.20
2022-09-01T10:08:34.643Z,25.50
2022-09-01T10:11:01.547Z,26.30
2022-09-01T10:13:34.092Z,25.90
2022-09-01T10:16:09.372Z,24.70
2022-09-01T10:18:40.935Z,24.80
2022-09-01T10:21:15.345Z,24.60
2022-09-01T10:23:43.260Z,25.10
2022-09-01T10:26:18.852Z,24.60
2022-09-01T10:29:21.901Z,24.60
2022-09-01T10:31:49.029Z,25.10
2022-09-01T10:34:19.636Z,25.20
2022-09-01T10:36:54.995Z,24.70
2022-09-01T10:39:27.602Z,24.20
2022-09-01T10:42:07.202Z,24.30
2022-09-01T10:44:55.100Z,25.10
2022-09-01T10:47:29.969Z,25.80
2022-09-01T10:50:01.609Z,25.70
2022-09-01T10:52:43.367Z,26.50
2022-09-01T10:55:24.730Z,26.30
2022-09-01T10:59:31.115Z,26.30
2022-09-01T11:01:41.090Z,26.20
2022-09-01T11:03:58.001Z,26.80
2022-09-01T11:06:42.890Z,26.60
2022-09-01T11:09:42.750Z,26.70
2022-09-01T11:12:10.345Z,26.80
2022-09-01T11:14:53.498Z,27.10
2022-09-01T11:17:27.645Z,27.30
2022-09-01T11:20:06.108Z,27.40
2022-09-01T11:22:35.194Z,27.50
2022-09-01T11:25:40.898Z,27.60
2022-09-01T11:28:18.067Z,27.20
2022-09-01T11:30:55.150Z,27.40
2022-09-01T11:33:45.854Z,26.90
2022-09-01T11:36:15.301Z,26.40
2022-09-01T11:39:19.312Z,26.00
2022-09-01T11:41:48.948Z,26.40
2022-09-01T11:44:47.910Z,27.00
2022-09-01T11:47:36.563Z,26.80
2022-09-01T11:50:20.603Z,26.10
2022-09-01T11:53:05.478Z,25.70
2022-09-01T11:55:34.285Z,24.90
2022-09-01T11:58:04.601Z,24.70
2022-09-01T12:00:40.913Z,25.00
2022-09-01T12:03:28.592Z,26.10
2022-09-01T12:06:01.799Z,27.30
2022-09-01T12:08:33.098Z,27.40
2022-09-01T12:11:12.765Z,27.30
2022-09-01T12:13:41.406Z,27.70
2022-09-01T12:16:23.115Z,28.30
2022-09-01T12:18:55.429Z,28.80
2022-09-01T12:21:36.432Z,28.90
2022-09-01T12:24:18.400Z,29.00
2022-09-01T12:26:46.712Z,28.80
2022-09-01T12:29:14.519Z,29.10
2022-09-01T12:31:44.248Z,28.60
2022-09-01T12:34:33.098Z,28.80
2022-09-01T12:37:12.673Z,27.70
2022-09-01T12:39:40.829Z,27.10
2022-09-01T12:42:19.176Z,26.70
2022-09-01T12:44:48.280Z,26.60
2022-09-01T12:47:38.310Z,26.80
2022-09-01T12:50:10.676Z,26.00
2022-09-01T12:52:45.050Z,25.70
2022-09-01T12:58:09.071Z,26.30
2022-09-01T13:00:58.189Z,26.10
2022-09-01T13:03:27.412Z,25.50
2022-09-01T13:05:55.526Z,26.00
2022-09-01T13:08:28.377Z,27.30
2022-09-01T13:11:05.309Z,28.40
2022-09-01T13:13:32.173Z,29.30
2022-09-01T13:16:02.572Z,29.20
2022-09-01T13:18:29.990Z,28.90
2022-09-01T13:20:58.073Z,29.10
2022-09-01T13:23:24.905Z,29.30
2022-09-01T13:25:54.702Z,28.40
2022-09-01T13:28:26.589Z,28.30
2022-09-01T13:39:17.561Z,30.50
2022-09-01T13:41:49.123Z,30.90
2022-09-01T13:44:17.310Z,30.60
2022-09-01T13:47:27.736Z,31.10
2022-09-01T13:52:19.397Z,31.20
2022-09-01T13:54:47.623Z,29.50
2022-09-01T13:57:16.205Z,29.60
2022-09-01T13:59:45.379Z,30.90
2022-09-01T14:02:12.116Z,31.00
2022-09-01T14:04:39.319Z,30.60
2022-09-01T14:07:06.492Z,30.60
2022-09-01T14:09:36.664Z,30.40
2022-09-01T14:12:05.324Z,30.70
2022-09-01T14:17:21.289Z,28.90
2022-09-01T14:19:51.363Z,29.80
2022-09-01T14:22:18.337Z,29.80
2022-09-01T14:24:45.192Z,28.70
2022-09-01T14:27:15.083Z,28.00
2022-09-01T14:32:08.025Z,28.60
2022-09-01T14:34:36.321Z,28.80
2022-09-01T14:37:04.132Z,28.40
2022-09-01T14:39:34.051Z,28.40
2022-09-01T14:42:00.791Z,27.40
2022-09-01T14:44:27.508Z,26.80
2022-09-01T14:46:54.514Z,26.70
2022-09-01T14:49:22.504Z,26.50
2022-09-01T14:54:38.468Z,27.30
2022-09-01T14:59:53.183Z,28.40
2022-09-01T15:02:19.967Z,29.50
2022-09-01T15:04:46.783Z,30.40
2022-09-01T15:07:16.227Z,31.00
2022-09-01T15:09:42.888Z,31.30
2022-09-01T15:12:10.447Z,30.00
2022-09-01T15:14:37.422Z,29.30
2022-09-01T15:17:09.653Z,27.80
2022-09-01T15:19:36.513Z,27.10
2022-09-01T15:22:04.321Z,26.70
2022-09-01T15:24:30.979Z,26.60
2022-09-01T15:26:57.937Z,26.40
2022-09-01T15:29:24.788Z,26.10
2022-09-01T15:31:51.585Z,26.40
2022-09-01T15:34:18.934Z,26.30
2022-09-01T15:36:46.889Z,26.60
2022-09-01T15:39:13.580Z,26.80
2022-09-01T15:41:40.330Z,26.70
2022-09-01T15:44:07.684Z,26.40
2022-09-01T15:46:36.036Z,26.20
2022-09-01T15:49:06.252Z,26.30
2022-09-01T15:51:36.517Z,25.80
2022-09-01T15:54:10.105Z,26.00
2022-09-01T15:56:37.163Z,25.90
2022-09-01T15:59:06.135Z,25.80
2022-09-01T16:01:38.522Z,26.00
2022-09-01T16:04:09.719Z,26.40
2022-09-01T16:06:40.539Z,26.80
2022-09-01T16:09:07.674Z,26.80
2022-09-01T16:11:36.603Z,26.60
2022-09-01T16:14:03.496Z,26.50
2022-09-01T16:16:40.858Z,26.30
2022-09-01T16:19:17.048Z,25.90
2022-09-01T16:22:06.045Z,25.80
2022-09-01T16:24:45.963Z,25.50
2022-09-01T16:27:17.114Z,25.20
2022-09-01T16:29:49.815Z,25.10
2022-09-01T16:32:28.482Z,24.90
2022-09-01T16:34:55.277Z,24.70
2022-09-01T16:37:37.321Z,24.60
2022-09-01T16:40:30.079Z,24.50
2022-09-01T16:43:30.921Z,24.40
2022-09-01T16:46:12.377Z,24.30
2022-09-01T16:48:57.854Z,24.40
2022-09-01T16:51:36.370Z,24.30
2022-09-01T16:54:24.834Z,24.30
2022-09-01T16:56:58.450Z,24.30
2022-09-01T16:59:33.410Z,24.30
2022-09-01T17:02:16.018Z,24.30
2022-09-01T17:04:48.127Z,24.30
2022-09-01T17:07:39.420Z,24.30
2022-09-01T17:10:33.490Z,24.30
2022-09-01T17:13:16.438Z,24.30
2022-09-01T17:15:48.044Z,24.30
2022-09-01T17:18:29.769Z,24.10
2022-09-01T17:21:09.052Z,24.10
2022-09-01T17:24:12.248Z,23.90
2022-09-01T17:26:40.786Z,23.80
2022-09-01T17:29:28.157Z,23.50
2022-09-01T17:32:19.700Z,23.30
2022-09-01T17:34:56.503Z,23.10
2022-09-01T17:37:39.290Z,23.00
2022-09-01T17:40:18.799Z,22.90
2022-09-01T17:42:57.474Z,22.70
2022-09-01T17:45:39.651Z,22.60
2022-09-01T17:48:16.940Z,22.40
2022-09-01T17:50:54.896Z,22.30
2022-09-01T17:53:50.493Z,22.20
2022-09-01T17:56:38.996Z,22.00
2022-09-01T17:59:30.253Z,21.80
2022-09-01T18:02:37.447Z,21.80
2022-09-01T18:05:14.266Z,21.60
2022-09-01T18:08:06.535Z,21.50
2022-09-01T18:10:38.329Z,21.40
2022-09-01T18:13:36.140Z,21.20
2022-09-01T18:16:19.672Z,21.00
2022-09-01T18:18:49.135Z,20.90
2022-09-01T18:21:25.187Z,20.80
2022-09-01T18:24:17.730Z,20.60
2022-09-01T18:26:48.312Z,20.60
2022-09-01T18:29:15.748Z,20.50
2022-09-01T18:31:48.462Z,20.40
2022-09-01T18:34:20.027Z,20.40
2022-09-01T18:36:58.673Z,20.40
2022-09-01T18:39:37.242Z,20.30
2022-09-01T18:42:43.551Z,20.30
2022-09-01T18:45:10.372Z,20.20
2022-09-01T18:47:49.124Z,20.10
2022-09-01T18:50:42.527Z,20.10
2022-09-01T18:53:39.832Z,20.00
2022-09-01T18:56:17.437Z,20.00
2022-09-01T18:59:02.488Z,19.90
2022-09-01T19:01:35.246Z,19.90
2022-09-01T19:04:18.226Z,19.80
2022-09-01T19:07:10.595Z,19.80
2022-09-01T19:10:12.899Z,19.90
2022-09-01T19:13:09.718Z,19.80
2022-09-01T19:16:03.481Z,19.80
2022-09-01T19:18:42.094Z,19.80
2022-09-01T19:21:32.487Z,19.70
2022-09-01T19:24:23.662Z,19.70
2022-09-01T19:27:13.043Z,19.60
2022-09-01T19:29:56.518Z,19.60
2022-09-01T19:32:27.084Z,19.60
2022-09-01T19:35:03.103Z,19.60
2022-09-01T19:37:29.817Z,19.60
2022-09-01T19:39:56.551Z,19.60
2022-09-01T19:42:33.764Z,19.50
2022-09-01T19:45:13.336Z,19.50
2022-09-01T19:47:50.532Z,19.50
2022-09-01T19:50:22.510Z,19.50
2022-09-01T19:53:00.871Z,19.40
2022-09-01T19:55:39.150Z,19.30
2022-09-01T19:58:14.008Z,19.20
2022-09-01T20:00:51.188Z,19.20
2022-09-01T20:03:36.320Z,19.10
2022-09-01T20:06:16.270Z,19.00
2022-09-01T20:09:20.861Z,18.90
2022-09-01T20:11:56.596Z,18.80
2022-09-01T20:14:44.611Z,18.80
2022-09-01T20:17:43.733Z,18.80
2022-09-01T20:20:14.937Z,18.80
2022-09-01T20:22:41.637Z,18.80
2022-09-01T20:25:14.803Z,18.70
2022-09-01T20:28:17.045Z,18.70
2022-09-01T20:30:51.007Z,18.70
2022-09-01T20:33:30.916Z,18.60
2022-09-01T20:36:09.473Z,18.60
2022-09-01T20:39:03.306Z,18.60
2022-09-01T20:41:39.361Z,18.60
2022-09-01T20:44:26.794Z,18.60
2022-09-01T20:46:54.301Z,18.60
2022-09-01T20:49:24.127Z,18.50
2022-09-01T20:52:02.696Z,18.50
2022-09-01T20:54:29.378Z,18.50
2022-09-01T20:57:01.124Z,18.50
2022-09-01T20:59:41.343Z,18.40
2022-09-01T21:02:26.485Z,18.30
2022-09-01T21:05:07.385Z,18.30
2022-09-01T21:07:45.311Z,18.30
2022-09-01T21:10:25.829Z,18.20
2022-09-01T21:13:15.363Z,18.20
2022-09-01T21:16:01.483Z,18.10
2022-09-01T21:18:51.574Z,18.00
2022-09-01T21:21:36.176Z,17.90
2022-09-01T21:24:07.462Z,17.80
2022-09-01T21:26:39.959Z,17.80
2022-09-01T21:29:23.836Z,17.70
2022-09-01T21:31:51.037Z,17.70
2022-09-01T21:34:18.083Z,17.60
2022-09-01T21:36:44.776Z,17.50
2022-09-01T21:39:11.563Z,17.50
2022-09-01T21:41:39.194Z,17.40
2022-09-01T21:44:06.497Z,17.40
2022-09-01T21:46:33.538Z,17.30
2022-09-01T21:49:00.333Z,17.30
2022-09-01T21:51:27.179Z,17.20
2022-09-01T21:53:53.955Z,17.10
2022-09-01T21:56:25.801Z,17.10
2022-09-01T21:58:55.289Z,17.00
2022-09-01T22:01:24.369Z,16.90
2022-09-01T22:03:54.310Z,16.80
2022-09-01T22:06:21.083Z,16.70
2022-09-01T22:08:47.732Z,16.70
2022-09-01T22:11:16.502Z,16.60
2022-09-01T22:13:43.692Z,16.60
2022-09-01T22:16:16.798Z,16.60
2022-09-01T22:18:43.752Z,16.50
2022-09-01T22:21:11.497Z,16.50
2022-09-01T22:23:38.972Z,16.50
2022-09-01T22:26:06.310Z,16.50
2022-09-01T22:28:32.995Z,16.50
2022-09-01T22:31:02.226Z,16.50
2022-09-01T22:33:30.313Z,16.50
2022-09-01T22:36:03.413Z,16.60
2022-09-01T22:38:30.141Z,16.60
2022-09-01T22:40:59.484Z,16.50
2022-09-01T22:43:27.562Z,16.50
2022-09-01T22:45:55.578Z,16.50
2022-09-01T22:48:26.052Z,16.50
2022-09-01T22:50:53.181Z,16.50
2022-09-01T22:53:21.411Z,16.40
2022-09-01T22:55:50.863Z,16.30
2022-09-01T22:58:18.541Z,16.20
2022-09-01T23:00:51.325Z,16.20
2022-09-01T23:03:19.689Z,16.10
2022-09-01T23:05:47.874Z,16.10
2022-09-01T23:08:15.139Z,16.10
2022-09-01T23:10:43.236Z,16.10
2022-09-01T23:13:12.355Z,16.00
2022-09-01T23:15:42.186Z,15.90
2022-09-01T23:18:08.891Z,15.90
2022-09-01T23:20:35.923Z,15.80
2022-09-01T23:23:04.019Z,15.80
2022-09-01T23:25:31.835Z,15.80
2022-09-01T23:28:05.050Z,15.70
2022-09-01T23:30:31.812Z,15.60
2022-09-01T23:32:58.608Z,15.60
2022-09-01T23:35:25.391Z,15.50
2022-09-01T23:37:52.102Z,15.40
2022-09-01T23:40:19.158Z,15.40
2022-09-01T23:42:46.070Z,15.40
2022-09-01T23:45:13.595Z,15.40
2022-09-01T23:47:40.657Z,15.40
2022-09-01T23:50:07.948Z,15.40
2022-09-01T23:52:34.754Z,15.40
2022-09-01T23:55:01.617Z,15.40
2022-09-01T23:57:28.455Z,15.40
